sensor_id;sensor_type;location;lat;lon;timestamp;temperature;humidity
35700;DHT22;21818;51.078;12.108;2022-08-19T00:01:38;21.50;96.30
35700;DHT22;21818;51.078;12.108;2022-08-19T00:04:06;21.50;96.30
35700;DHT22;21818;51.078;12.108;2022-08-19T00:06:34;21.50;96.30
35700;DHT22;21818;51.078;12.108;2022-08-19T00:09:03;21.40;96.50
35700;DHT22;21818;51.078;12.108;2022-08-19T00:11:29;21.50;96.30
35700;DHT22;21818;51.078;12.108;2022-08-19T00:13:55;21.60;96.00
35700;DHT22;21818;51.078;12.108;2022-08-19T00:16:23;21.50;96.30
35700;DHT22;21818;51.078;12.108;2022-08-19T00:18:48;21.50;96.20
35700;DHT22;21818;51.078;12.108;2022-08-19T00:21:14;21.70;96.10
35700;DHT22;21818;51.078;12.108;2022-08-19T00:23:41;21.60;96.10
35700;DHT22;21818;51.078;12.108;2022-08-19T00:26:09;21.50;96.50
35700;DHT22;21818;51.078;12.108;2022-08-19T00:28:35;21.40;96.60
35700;DHT22;21818;51.078;12.108;2022-08-19T00:31:03;21.40;96.80
35700;DHT22;21818;51.078;12.108;2022-08-19T00:33:30;21.40;96.80
35700;DHT22;21818;51.078;12.108;2022-08-19T00:35:59;21.40;96.60
35700;DHT22;21818;51.078;12.108;2022-08-19T00:38:25;21.40;96.90
35700;DHT22;21818;51.078;12.108;2022-08-19T00:40:51;21.30;97.00
35700;DHT22;21818;51.078;12.108;2022-08-19T00:43:23;21.30;97.00
35700;DHT22;21818;51.078;12.108;2022-08-19T00:45:49;21.30;97.50
35700;DHT22;21818;51.078;12.108;2022-08-19T00:48:18;21.30;97.10
35700;DHT22;21818;51.078;12.108;2022-08-19T00:50:45;21.30;97.10
35700;DHT22;21818;51.078;12.108;2022-08-19T00:53:15;21.30;97.10
35700;DHT22;21818;51.078;12.108;2022-08-19T00:55:45;21.40;97.10
35700;DHT22;21818;51.078;12.108;2022-08-19T00:58:15;21.40;97.10
35700;DHT22;21818;51.078;12.108;2022-08-19T01:00:42;21.40;97.10
35700;DHT22;21818;51.078;12.108;2022-08-19T01:03:11;21.40;96.90
35700;DHT22;21818;51.078;12.108;2022-08-19T01:05:39;21.50;97.00
35700;DHT22;21818;51.078;12.108;2022-08-19T01:08:07;21.40;96.90
35700;DHT22;21818;51.078;12.108;2022-08-19T01:10:39;21.50;96.80
35700;DHT22;21818;51.078;12.108;2022-08-19T01:13:05;21.50;97.00
35700;DHT22;21818;51.078;12.108;2022-08-19T01:15:34;21.50;97.00
35700;DHT22;21818;51.078;12.108;2022-08-19T01:18:07;21.50;97.00
35700;DHT22;21818;51.078;12.108;2022-08-19T01:20:34;21.50;97.00
35700;DHT22;21818;51.078;12.108;2022-08-19T01:23:00;21.40;97.10
35700;DHT22;21818;51.078;12.108;2022-08-19T01:25:32;21.50;97.10
35700;DHT22;21818;51.078;12.108;2022-08-19T01:28:00;21.40;97.10
35700;DHT22;21818;51.078;12.108;2022-08-19T01:30:30;21.40;97.10
35700;DHT22;21818;51.078;12.108;2022-08-19T01:32:58;21.40;97.30
35700;DHT22;21818;51.078;12.108;2022-08-19T01:35:27;21.40;97.30
35700;DHT22;21818;51.078;12.108;2022-08-19T01:40:25;21.30;97.40
35700;DHT22;21818;51.078;12.108;2022-08-19T01:42:52;21.40;97.30
35700;DHT22;21818;51.078;12.108;2022-08-19T01:45:20;21.40;97.20
35700;DHT22;21818;51.078;12.108;2022-08-19T01:47:46;21.40;97.20
35700;DHT22;21818;51.078;12.108;2022-08-19T01:50:12;21.40;97.40
35700;DHT22;21818;51.078;12.108;2022-08-19T01:52:40;21.40;97.20
35700;DHT22;21818;51.078;12.108;2022-08-19T01:55:09;21.40;97.20
35700;DHT22;21818;51.078;12.108;2022-08-19T01:57:34;21.40;97.30
35700;DHT22;21818;51.078;12.108;2022-08-19T02:00:00;21.40;97.30
35700;DHT22;21818;51.078;12.108;2022-08-19T02:02:28;21.30;97.40
35700;DHT22;21818;51.078;12.108;2022-08-19T02:04:53;21.30;97.50
35700;DHT22;21818;51.078;12.108;2022-08-19T02:07:20;21.20;97.60
35700;DHT22;21818;51.078;12.108;2022-08-19T02:09:47;21.30;97.60
35700;DHT22;21818;51.078;12.108;2022-08-19T02:12:14;21.30;97.50
35700;DHT22;21818;51.078;12.108;2022-08-19T02:14:39;21.30;97.40
35700;DHT22;21818;51.078;12.108;2022-08-19T02:17:05;21.30;97.50
35700;DHT22;21818;51.078;12.108;2022-08-19T02:19:31;21.30;97.40
35700;DHT22;21818;51.078;12.108;2022-08-19T02:21:58;21.30;97.50
35700;DHT22;21818;51.078;12.108;2022-08-19T02:24:24;21.40;97.40
35700;DHT22;21818;51.078;12.108;2022-08-19T02:26:49;21.30;97.40
35700;DHT22;21818;51.078;12.108;2022-08-19T02:29:16;21.40;97.40
35700;DHT22;21818;51.078;12.108;2022-08-19T02:31:41;21.40;97.20
35700;DHT22;21818;51.078;12.108;2022-08-19T02:34:07;21.40;97.30
35700;DHT22;21818;51.078;12.108;2022-08-19T02:36:33;21.30;97.40
35700;DHT22;21818;51.078;12.108;2022-08-19T02:38:58;21.30;97.50
35700;DHT22;21818;51.078;12.108;2022-08-19T02:41:27;21.30;97.50
35700;DHT22;21818;51.078;12.108;2022-08-19T02:43:54;21.30;97.40
35700;DHT22;21818;51.078;12.108;2022-08-19T02:46:24;21.40;97.30
35700;DHT22;21818;51.078;12.108;2022-08-19T02:48:53;21.40;97.40
35700;DHT22;21818;51.078;12.108;2022-08-19T02:51:25;21.40;97.40
35700;DHT22;21818;51.078;12.108;2022-08-19T02:53:51;21.30;97.50
35700;DHT22;21818;51.078;12.108;2022-08-19T02:56:17;21.30;97.60
35700;DHT22;21818;51.078;12.108;2022-08-19T02:58:44;21.30;97.50
35700;DHT22;21818;51.078;12.108;2022-08-19T03:01:10;21.30;97.50
35700;DHT22;21818;51.078;12.108;2022-08-19T03:03:37;21.30;97.50
35700;DHT22;21818;51.078;12.108;2022-08-19T03:06:12;21.20;97.50
35700;DHT22;21818;51.078;12.108;2022-08-19T03:08:39;21.20;97.70
35700;DHT22;21818;51.078;12.108;2022-08-19T03:11:05;21.20;97.70
35700;DHT22;21818;51.078;12.108;2022-08-19T03:13:32;21.20;97.70
35700;DHT22;21818;51.078;12.108;2022-08-19T03:15:57;21.20;97.90
35700;DHT22;21818;51.078;12.108;2022-08-19T03:18:23;21.10;98.00
35700;DHT22;21818;51.078;12.108;2022-08-19T03:20:51;21.10;98.10
35700;DHT22;21818;51.078;12.108;2022-08-19T03:23:20;21.10;98.10
35700;DHT22;21818;51.078;12.108;2022-08-19T03:25:48;21.10;98.20
35700;DHT22;21818;51.078;12.108;2022-08-19T03:28:15;21.00;98.30
35700;DHT22;21818;51.078;12.108;2022-08-19T03:30:42;21.00;98.20
35700;DHT22;21818;51.078;12.108;2022-08-19T03:33:09;21.00;98.30
35700;DHT22;21818;51.078;12.108;2022-08-19T03:35:36;21.00;98.40
35700;DHT22;21818;51.078;12.108;2022-08-19T03:38:06;21.00;98.40
35700;DHT22;21818;51.078;12.108;2022-08-19T03:40:32;21.10;98.20
35700;DHT22;21818;51.078;12.108;2022-08-19T03:42:57;21.10;98.40
35700;DHT22;21818;51.078;12.108;2022-08-19T03:45:24;21.00;98.50
35700;DHT22;21818;51.078;12.108;2022-08-19T03:47:49;21.10;98.30
35700;DHT22;21818;51.078;12.108;2022-08-19T03:50:15;21.10;98.20
35700;DHT22;21818;51.078;12.108;2022-08-19T03:52:41;21.20;98.20
35700;DHT22;21818;51.078;12.108;2022-08-19T03:55:07;21.30;98.00
35700;DHT22;21818;51.078;12.108;2022-08-19T03:57:33;21.30;98.00
35700;DHT22;21818;51.078;12.108;2022-08-19T04:00:00;21.20;98.00
35700;DHT22;21818;51.078;12.108;2022-08-19T04:02:26;21.30;98.00
35700;DHT22;21818;51.078;12.108;2022-08-19T04:04:53;21.30;98.00
35700;DHT22;21818;51.078;12.108;2022-08-19T04:07:19;21.30;98.00
35700;DHT22;21818;51.078;12.108;2022-08-19T04:09:47;21.30;98.00
35700;DHT22;21818;51.078;12.108;2022-08-19T04:12:12;21.30;97.90
35700;DHT22;21818;51.078;12.108;2022-08-19T04:14:38;21.30;98.00
35700;DHT22;21818;51.078;12.108;2022-08-19T04:17:04;21.30;98.10
35700;DHT22;21818;51.078;12.108;2022-08-19T04:19:32;21.30;98.20
35700;DHT22;21818;51.078;12.108;2022-08-19T04:21:58;21.20;98.20
35700;DHT22;21818;51.078;12.108;2022-08-19T04:24:24;21.20;98.30
35700;DHT22;21818;51.078;12.108;2022-08-19T04:26:50;21.20;98.20
35700;DHT22;21818;51.078;12.108;2022-08-19T04:29:25;21.30;98.20
35700;DHT22;21818;51.078;12.108;2022-08-19T04:31:53;21.30;98.10
35700;DHT22;21818;51.078;12.108;2022-08-19T04:34:20;21.30;98.00
35700;DHT22;21818;51.078;12.108;2022-08-19T04:36:51;21.40;98.00
35700;DHT22;21818;51.078;12.108;2022-08-19T04:39:21;21.40;97.90
35700;DHT22;21818;51.078;12.108;2022-08-19T04:41:46;21.40;97.90
35700;DHT22;21818;51.078;12.108;2022-08-19T04:44:32;21.30;98.00
35700;DHT22;21818;51.078;12.108;2022-08-19T04:46:58;21.30;98.10
35700;DHT22;21818;51.078;12.108;2022-08-19T04:49:24;21.30;98.10
35700;DHT22;21818;51.078;12.108;2022-08-19T04:51:51;21.30;98.20
35700;DHT22;21818;51.078;12.108;2022-08-19T04:54:19;21.30;98.20
35700;DHT22;21818;51.078;12.108;2022-08-19T04:56:48;21.30;98.10
35700;DHT22;21818;51.078;12.108;2022-08-19T04:59:15;21.30;98.20
35700;DHT22;21818;51.078;12.108;2022-08-19T05:01:42;21.30;98.20
35700;DHT22;21818;51.078;12.108;2022-08-19T05:04:08;21.30;98.30
35700;DHT22;21818;51.078;12.108;2022-08-19T05:06:35;21.30;98.10
35700;DHT22;21818;51.078;12.108;2022-08-19T05:09:03;21.30;98.20
35700;DHT22;21818;51.078;12.108;2022-08-19T05:11:32;21.30;98.20
35700;DHT22;21818;51.078;12.108;2022-08-19T05:13:58;21.30;98.20
35700;DHT22;21818;51.078;12.108;2022-08-19T05:16:25;21.40;98.20
35700;DHT22;21818;51.078;12.108;2022-08-19T05:18:51;21.40;98.10
35700;DHT22;21818;51.078;12.108;2022-08-19T05:21:36;21.30;98.30
35700;DHT22;21818;51.078;12.108;2022-08-19T05:24:21;21.30;98.30
35700;DHT22;21818;51.078;12.108;2022-08-19T05:26:48;21.30;98.20
35700;DHT22;21818;51.078;12.108;2022-08-19T05:29:16;21.40;98.20
35700;DHT22;21818;51.078;12.108;2022-08-19T05:31:42;21.40;98.10
35700;DHT22;21818;51.078;12.108;2022-08-19T05:34:09;21.30;98.20
35700;DHT22;21818;51.078;12.108;2022-08-19T05:36:40;21.30;98.40
35700;DHT22;21818;51.078;12.108;2022-08-19T05:39:11;21.40;98.30
35700;DHT22;21818;51.078;12.108;2022-08-19T05:41:42;21.40;98.20
35700;DHT22;21818;51.078;12.108;2022-08-19T05:44:08;21.40;98.30
35700;DHT22;21818;51.078;12.108;2022-08-19T05:46:36;21.50;98.20
35700;DHT22;21818;51.078;12.108;2022-08-19T05:49:05;21.50;98.10
35700;DHT22;21818;51.078;12.108;2022-08-19T05:51:31;21.50;98.00
35700;DHT22;21818;51.078;12.108;2022-08-19T05:53:57;21.50;98.10
35700;DHT22;21818;51.078;12.108;2022-08-19T05:56:23;21.50;98.10
35700;DHT22;21818;51.078;12.108;2022-08-19T05:58:49;21.50;98.00
35700;DHT22;21818;51.078;12.108;2022-08-19T06:01:17;21.50;97.90
35700;DHT22;21818;51.078;12.108;2022-08-19T06:03:44;21.50;98.00
35700;DHT22;21818;51.078;12.108;2022-08-19T06:06:11;21.60;97.90
35700;DHT22;21818;51.078;12.108;2022-08-19T06:08:38;21.80;97.50
35700;DHT22;21818;51.078;12.108;2022-08-19T06:11:57;22.20;96.70
35700;DHT22;21818;51.078;12.108;2022-08-19T06:14:08;22.50;96.20
35700;DHT22;21818;51.078;12.108;2022-08-19T06:16:39;22.70;95.80
35700;DHT22;21818;51.078;12.108;2022-08-19T06:19:10;22.80;95.50
35700;DHT22;21818;51.078;12.108;2022-08-19T06:21:37;22.90;95.40
35700;DHT22;21818;51.078;12.108;2022-08-19T06:24:08;23.00;95.20
35700;DHT22;21818;51.078;12.108;2022-08-19T06:26:36;23.00;95.10
35700;DHT22;21818;51.078;12.108;2022-08-19T06:29:04;23.00;94.90
35700;DHT22;21818;51.078;12.108;2022-08-19T06:31:32;23.10;94.90
35700;DHT22;21818;51.078;12.108;2022-08-19T06:33:59;23.10;94.80
35700;DHT22;21818;51.078;12.108;2022-08-19T06:36:29;23.10;94.70
35700;DHT22;21818;51.078;12.108;2022-08-19T06:39:03;23.20;94.60
35700;DHT22;21818;51.078;12.108;2022-08-19T06:41:30;23.20;94.60
35700;DHT22;21818;51.078;12.108;2022-08-19T06:43:56;23.20;94.50
35700;DHT22;21818;51.078;12.108;2022-08-19T06:46:22;23.20;94.50
35700;DHT22;21818;51.078;12.108;2022-08-19T06:48:49;23.20;94.40
35700;DHT22;21818;51.078;12.108;2022-08-19T06:51:16;23.20;94.30
35700;DHT22;21818;51.078;12.108;2022-08-19T06:53:47;23.20;94.30
35700;DHT22;21818;51.078;12.108;2022-08-19T06:56:15;23.20;94.20
35700;DHT22;21818;51.078;12.108;2022-08-19T06:58:41;23.20;94.20
35700;DHT22;21818;51.078;12.108;2022-08-19T07:01:07;23.20;94.20
35700;DHT22;21818;51.078;12.108;2022-08-19T07:03:34;23.20;94.10
35700;DHT22;21818;51.078;12.108;2022-08-19T07:06:11;23.20;94.10
35700;DHT22;21818;51.078;12.108;2022-08-19T07:08:38;23.20;94.00
35700;DHT22;21818;51.078;12.108;2022-08-19T07:11:08;23.30;94.00
35700;DHT22;21818;51.078;12.108;2022-08-19T07:13:35;23.30;93.90
35700;DHT22;21818;51.078;12.108;2022-08-19T07:16:06;23.30;93.90
35700;DHT22;21818;51.078;12.108;2022-08-19T07:18:33;23.20;93.80
35700;DHT22;21818;51.078;12.108;2022-08-19T07:21:03;23.20;93.80
35700;DHT22;21818;51.078;12.108;2022-08-19T07:23:30;23.20;93.80
35700;DHT22;21818;51.078;12.108;2022-08-19T07:25:55;23.20;93.70
35700;DHT22;21818;51.078;12.108;2022-08-19T07:28:22;23.30;93.70
35700;DHT22;21818;51.078;12.108;2022-08-19T07:30:48;23.30;93.60
35700;DHT22;21818;51.078;12.108;2022-08-19T07:33:15;23.30;93.60
35700;DHT22;21818;51.078;12.108;2022-08-19T07:35:43;23.30;93.50
35700;DHT22;21818;51.078;12.108;2022-08-19T07:38:09;23.30;93.50
35700;DHT22;21818;51.078;12.108;2022-08-19T07:40:35;23.30;93.40
35700;DHT22;21818;51.078;12.108;2022-08-19T07:43:01;23.30;93.40
35700;DHT22;21818;51.078;12.108;2022-08-19T07:45:26;23.30;93.30
35700;DHT22;21818;51.078;12.108;2022-08-19T07:47:53;23.30;93.30
35700;DHT22;21818;51.078;12.108;2022-08-19T07:50:20;23.30;93.30
35700;DHT22;21818;51.078;12.108;2022-08-19T07:52:45;23.30;93.30
35700;DHT22;21818;51.078;12.108;2022-08-19T07:55:12;23.30;93.30
35700;DHT22;21818;51.078;12.108;2022-08-19T07:57:37;23.30;93.20
35700;DHT22;21818;51.078;12.108;2022-08-19T08:00:05;23.30;93.20
35700;DHT22;21818;51.078;12.108;2022-08-19T08:02:31;23.30;93.20
35700;DHT22;21818;51.078;12.108;2022-08-19T08:04:57;23.30;93.10
35700;DHT22;21818;51.078;12.108;2022-08-19T08:07:41;23.30;93.10
35700;DHT22;21818;51.078;12.108;2022-08-19T08:10:25;23.30;93.10
35700;DHT22;21818;51.078;12.108;2022-08-19T08:12:51;23.30;93.10
35700;DHT22;21818;51.078;12.108;2022-08-19T08:15:17;23.30;93.10
35700;DHT22;21818;51.078;12.108;2022-08-19T08:17:44;23.30;93.10
35700;DHT22;21818;51.078;12.108;2022-08-19T08:20:10;23.30;93.10
35700;DHT22;21818;51.078;12.108;2022-08-19T08:22:36;23.30;93.10
35700;DHT22;21818;51.078;12.108;2022-08-19T08:25:22;23.30;93.10
35700;DHT22;21818;51.078;12.108;2022-08-19T08:27:49;23.30;93.00
35700;DHT22;21818;51.078;12.108;2022-08-19T08:30:23;23.30;93.00
35700;DHT22;21818;51.078;12.108;2022-08-19T08:32:49;23.30;93.00
35700;DHT22;21818;51.078;12.108;2022-08-19T08:35:17;23.30;93.00
35700;DHT22;21818;51.078;12.108;2022-08-19T08:37:45;23.30;92.90
35700;DHT22;21818;51.078;12.108;2022-08-19T08:40:44;23.30;92.90
35700;DHT22;21818;51.078;12.108;2022-08-19T08:43:29;23.30;92.80
35700;DHT22;21818;51.078;12.108;2022-08-19T08:46:09;23.30;92.80
35700;DHT22;21818;51.078;12.108;2022-08-19T08:48:40;23.30;92.70
35700;DHT22;21818;51.078;12.108;2022-08-19T08:51:12;23.30;92.70
35700;DHT22;21818;51.078;12.108;2022-08-19T08:53:40;23.30;92.60
35700;DHT22;21818;51.078;12.108;2022-08-19T08:56:07;23.40;92.60
35700;DHT22;21818;51.078;12.108;2022-08-19T09:01:13;23.40;92.50
35700;DHT22;21818;51.078;12.108;2022-08-19T09:03:42;23.40;92.40
35700;DHT22;21818;51.078;12.108;2022-08-19T09:06:26;23.40;92.30
35700;DHT22;21818;51.078;12.108;2022-08-19T09:09:14;23.40;92.30
35700;DHT22;21818;51.078;12.108;2022-08-19T09:12:13;23.30;92.30
35700;DHT22;21818;51.078;12.108;2022-08-19T09:15:05;23.40;92.20
35700;DHT22;21818;51.078;12.108;2022-08-19T09:17:31;23.40;92.20
35700;DHT22;21818;51.078;12.108;2022-08-19T09:20:15;23.40;92.00
35700;DHT22;21818;51.078;12.108;2022-08-19T09:22:43;23.30;92.10
35700;DHT22;21818;51.078;12.108;2022-08-19T09:25:12;23.30;92.00
35700;DHT22;21818;51.078;12.108;2022-08-19T09:27:39;23.40;91.90
35700;DHT22;21818;51.078;12.108;2022-08-19T09:30:06;23.40;91.80
35700;DHT22;21818;51.078;12.108;2022-08-19T09:32:33;23.40;91.70
35700;DHT22;21818;51.078;12.108;2022-08-19T09:34:59;23.40;91.70
35700;DHT22;21818;51.078;12.108;2022-08-19T09:37:26;23.40;91.60
35700;DHT22;21818;51.078;12.108;2022-08-19T09:39:52;23.40;91.60
35700;DHT22;21818;51.078;12.108;2022-08-19T09:42:18;23.30;91.50
35700;DHT22;21818;51.078;12.108;2022-08-19T09:44:43;23.30;91.50
35700;DHT22;21818;51.078;12.108;2022-08-19T09:47:11;23.40;91.50
35700;DHT22;21818;51.078;12.108;2022-08-19T09:49:37;23.30;91.40
35700;DHT22;21818;51.078;12.108;2022-08-19T09:52:04;23.40;91.60
35700;DHT22;21818;51.078;12.108;2022-08-19T09:54:29;23.30;91.30
35700;DHT22;21818;51.078;12.108;2022-08-19T09:56:57;23.40;91.30
35700;DHT22;21818;51.078;12.108;2022-08-19T09:59:23;23.40;91.20
35700;DHT22;21818;51.078;12.108;2022-08-19T10:01:49;23.30;91.10
35700;DHT22;21818;51.078;12.108;2022-08-19T10:04:16;23.40;91.10
35700;DHT22;21818;51.078;12.108;2022-08-19T10:06:42;23.40;91.10
35700;DHT22;21818;51.078;12.108;2022-08-19T10:09:08;23.40;91.00
35700;DHT22;21818;51.078;12.108;2022-08-19T10:11:35;23.40;90.90
35700;DHT22;21818;51.078;12.108;2022-08-19T10:14:02;23.40;90.80
35700;DHT22;21818;51.078;12.108;2022-08-19T10:16:31;23.30;90.80
35700;DHT22;21818;51.078;12.108;2022-08-19T10:18:57;23.40;90.80
35700;DHT22;21818;51.078;12.108;2022-08-19T10:21:29;23.40;90.70
35700;DHT22;21818;51.078;12.108;2022-08-19T10:23:57;23.40;90.70
35700;DHT22;21818;51.078;12.108;2022-08-19T10:26:27;23.40;90.70
35700;DHT22;21818;51.078;12.108;2022-08-19T10:28:54;23.40;90.60
35700;DHT22;21818;51.078;12.108;2022-08-19T10:31:23;23.40;90.60
35700;DHT22;21818;51.078;12.108;2022-08-19T10:33:50;23.40;90.90
35700;DHT22;21818;51.078;12.108;2022-08-19T10:36:21;23.40;90.50
35700;DHT22;21818;51.078;12.108;2022-08-19T10:38:50;23.40;90.50
35700;DHT22;21818;51.078;12.108;2022-08-19T10:41:18;23.40;90.50
35700;DHT22;21818;51.078;12.108;2022-08-19T10:43:44;23.40;90.50
35700;DHT22;21818;51.078;12.108;2022-08-19T10:46:13;23.40;90.60
35700;DHT22;21818;51.078;12.108;2022-08-19T10:48:40;23.30;90.30
35700;DHT22;21818;51.078;12.108;2022-08-19T10:51:06;23.30;90.30
35700;DHT22;21818;51.078;12.108;2022-08-19T10:53:51;23.30;90.20
35700;DHT22;21818;51.078;12.108;2022-08-19T10:56:17;23.30;90.20
35700;DHT22;21818;51.078;12.108;2022-08-19T10:59:03;23.30;90.20
35700;DHT22;21818;51.078;12.108;2022-08-19T11:01:30;23.30;90.20
35700;DHT22;21818;51.078;12.108;2022-08-19T11:03:58;23.30;90.10
35700;DHT22;21818;51.078;12.108;2022-08-19T11:06:24;23.30;90.00
35700;DHT22;21818;51.078;12.108;2022-08-19T11:08:53;23.30;89.90
35700;DHT22;21818;51.078;12.108;2022-08-19T11:11:20;23.30;89.80
35700;DHT22;21818;51.078;12.108;2022-08-19T11:13:46;23.30;90.10
35700;DHT22;21818;51.078;12.108;2022-08-19T11:16:15;23.30;89.70
35700;DHT22;21818;51.078;12.108;2022-08-19T11:18:44;23.30;89.60
35700;DHT22;21818;51.078;12.108;2022-08-19T11:21:30;23.30;90.00
35700;DHT22;21818;51.078;12.108;2022-08-19T11:24:14;23.30;89.30
35700;DHT22;21818;51.078;12.108;2022-08-19T11:26:42;23.30;89.30
35700;DHT22;21818;51.078;12.108;2022-08-19T11:29:10;23.30;89.40
35700;DHT22;21818;51.078;12.108;2022-08-19T11:31:41;23.30;89.40
35700;DHT22;21818;51.078;12.108;2022-08-19T11:34:10;23.20;89.30
35700;DHT22;21818;51.078;12.108;2022-08-19T11:36:40;23.30;89.30
35700;DHT22;21818;51.078;12.108;2022-08-19T11:39:09;23.30;89.10
35700;DHT22;21818;51.078;12.108;2022-08-19T11:41:35;23.30;89.00
35700;DHT22;21818;51.078;12.108;2022-08-19T11:44:01;23.30;89.00
35700;DHT22;21818;51.078;12.108;2022-08-19T11:46:28;23.30;88.90
35700;DHT22;21818;51.078;12.108;2022-08-19T11:48:58;23.30;88.90
35700;DHT22;21818;51.078;12.108;2022-08-19T11:51:26;23.30;88.80
35700;DHT22;21818;51.078;12.108;2022-08-19T11:53:54;23.20;88.70
35700;DHT22;21818;51.078;12.108;2022-08-19T11:56:21;23.20;88.70
35700;DHT22;21818;51.078;12.108;2022-08-19T11:58:47;23.20;88.70
35700;DHT22;21818;51.078;12.108;2022-08-19T12:01:15;23.20;88.80
35700;DHT22;21818;51.078;12.108;2022-08-19T12:03:45;23.20;88.80
35700;DHT22;21818;51.078;12.108;2022-08-19T12:06:14;23.10;88.80
35700;DHT22;21818;51.078;12.108;2022-08-19T12:08:41;23.20;88.90
35700;DHT22;21818;51.078;12.108;2022-08-19T12:11:07;23.20;88.80
35700;DHT22;21818;51.078;12.108;2022-08-19T12:13:34;23.20;88.60
35700;DHT22;21818;51.078;12.108;2022-08-19T12:16:00;23.30;88.60
35700;DHT22;21818;51.078;12.108;2022-08-19T12:18:26;23.30;88.30
35700;DHT22;21818;51.078;12.108;2022-08-19T12:20:53;23.30;88.20
35700;DHT22;21818;51.078;12.108;2022-08-19T12:23:22;23.40;88.10
35700;DHT22;21818;51.078;12.108;2022-08-19T12:25:49;23.40;88.10
35700;DHT22;21818;51.078;12.108;2022-08-19T12:28:22;23.40;88.00
35700;DHT22;21818;51.078;12.108;2022-08-19T12:30:49;23.40;88.00
35700;DHT22;21818;51.078;12.108;2022-08-19T12:33:17;23.40;88.00
35700;DHT22;21818;51.078;12.108;2022-08-19T12:35:44;23.40;88.00
35700;DHT22;21818;51.078;12.108;2022-08-19T12:38:13;23.40;88.00
35700;DHT22;21818;51.078;12.108;2022-08-19T12:40:40;23.40;88.00
35700;DHT22;21818;51.078;12.108;2022-08-19T12:43:06;23.40;88.00
35700;DHT22;21818;51.078;12.108;2022-08-19T12:45:32;23.50;87.90
35700;DHT22;21818;51.078;12.108;2022-08-19T12:47:58;23.50;87.80
35700;DHT22;21818;51.078;12.108;2022-08-19T12:50:24;23.60;87.60
35700;DHT22;21818;51.078;12.108;2022-08-19T12:52:50;23.70;87.30
35700;DHT22;21818;51.078;12.108;2022-08-19T12:55:17;23.70;87.10
35700;DHT22;21818;51.078;12.108;2022-08-19T12:57:44;23.70;86.90
35700;DHT22;21818;51.078;12.108;2022-08-19T13:00:13;23.70;86.70
35700;DHT22;21818;51.078;12.108;2022-08-19T13:02:42;23.70;86.60
35700;DHT22;21818;51.078;12.108;2022-08-19T13:05:12;23.70;86.40
35700;DHT22;21818;51.078;12.108;2022-08-19T13:07:39;23.70;86.30
35700;DHT22;21818;51.078;12.108;2022-08-19T13:10:10;23.70;86.20
35700;DHT22;21818;51.078;12.108;2022-08-19T13:12:37;23.80;86.10
35700;DHT22;21818;51.078;12.108;2022-08-19T13:15:04;23.70;86.00
35700;DHT22;21818;51.078;12.108;2022-08-19T13:17:29;23.70;85.90
35700;DHT22;21818;51.078;12.108;2022-08-19T13:19:55;23.70;85.90
35700;DHT22;21818;51.078;12.108;2022-08-19T13:22:20;23.70;85.90
35700;DHT22;21818;51.078;12.108;2022-08-19T13:24:46;23.70;85.80
35700;DHT22;21818;51.078;12.108;2022-08-19T13:27:11;23.70;85.80
35700;DHT22;21818;51.078;12.108;2022-08-19T13:29:39;23.60;85.70
35700;DHT22;21818;51.078;12.108;2022-08-19T13:32:24;23.60;85.60
35700;DHT22;21818;51.078;12.108;2022-08-19T13:35:08;23.60;85.70
35700;DHT22;21818;51.078;12.108;2022-08-19T13:37:34;23.60;85.70
35700;DHT22;21818;51.078;12.108;2022-08-19T13:40:18;23.60;85.70
35700;DHT22;21818;51.078;12.108;2022-08-19T13:42:49;23.60;85.70
35700;DHT22;21818;51.078;12.108;2022-08-19T13:45:16;23.60;85.60
35700;DHT22;21818;51.078;12.108;2022-08-19T13:47:48;23.50;85.50
35700;DHT22;21818;51.078;12.108;2022-08-19T13:50:16;23.60;85.70
35700;DHT22;21818;51.078;12.108;2022-08-19T13:52:43;23.60;85.60
35700;DHT22;21818;51.078;12.108;2022-08-19T13:55:10;23.60;85.60
35700;DHT22;21818;51.078;12.108;2022-08-19T13:57:36;23.60;85.60
35700;DHT22;21818;51.078;12.108;2022-08-19T14:00:11;23.60;85.50
35700;DHT22;21818;51.078;12.108;2022-08-19T14:02:38;23.60;85.50
35700;DHT22;21818;51.078;12.108;2022-08-19T14:05:06;23.60;85.40
35700;DHT22;21818;51.078;12.108;2022-08-19T14:07:31;23.60;85.40
35700;DHT22;21818;51.078;12.108;2022-08-19T14:09:57;23.60;85.50
35700;DHT22;21818;51.078;12.108;2022-08-19T14:12:23;23.60;85.40
35700;DHT22;21818;51.078;12.108;2022-08-19T14:14:48;23.60;85.40
35700;DHT22;21818;51.078;12.108;2022-08-19T14:17:14;23.60;85.30
35700;DHT22;21818;51.078;12.108;2022-08-19T14:19:41;23.60;85.20
35700;DHT22;21818;51.078;12.108;2022-08-19T14:22:07;23.60;85.20
35700;DHT22;21818;51.078;12.108;2022-08-19T14:24:33;23.60;85.10
35700;DHT22;21818;51.078;12.108;2022-08-19T14:26:58;23.60;85.10
35700;DHT22;21818;51.078;12.108;2022-08-19T14:29:25;23.60;85.10
35700;DHT22;21818;51.078;12.108;2022-08-19T14:31:50;23.60;85.10
35700;DHT22;21818;51.078;12.108;2022-08-19T14:34:16;23.60;85.10
35700;DHT22;21818;51.078;12.108;2022-08-19T14:36:42;23.70;85.10
35700;DHT22;21818;51.078;12.108;2022-08-19T14:39:08;23.70;85.00
35700;DHT22;21818;51.078;12.108;2022-08-19T14:41:35;23.70;85.00
35700;DHT22;21818;51.078;12.108;2022-08-19T14:44:00;23.70;85.00
35700;DHT22;21818;51.078;12.108;2022-08-19T14:46:28;23.70;85.00
35700;DHT22;21818;51.078;12.108;2022-08-19T14:48:54;23.80;85.00
35700;DHT22;21818;51.078;12.108;2022-08-19T14:51:22;23.80;84.90
35700;DHT22;21818;51.078;12.108;2022-08-19T14:53:49;23.80;84.70
35700;DHT22;21818;51.078;12.108;2022-08-19T14:56:21;23.70;84.70
35700;DHT22;21818;51.078;12.108;2022-08-19T14:58:47;23.70;84.70
35700;DHT22;21818;51.078;12.108;2022-08-19T15:01:13;23.70;84.70
35700;DHT22;21818;51.078;12.108;2022-08-19T15:03:39;23.70;84.70
35700;DHT22;21818;51.078;12.108;2022-08-19T15:06:06;23.70;84.70
35700;DHT22;21818;51.078;12.108;2022-08-19T15:08:34;23.70;84.60
35700;DHT22;21818;51.078;12.108;2022-08-19T15:11:01;23.70;84.70
35700;DHT22;21818;51.078;12.108;2022-08-19T15:13:28;23.70;84.80
35700;DHT22;21818;51.078;12.108;2022-08-19T15:15:55;23.70;84.80
35700;DHT22;21818;51.078;12.108;2022-08-19T15:18:21;23.70;84.70
35700;DHT22;21818;51.078;12.108;2022-08-19T15:20:47;23.70;85.30
35700;DHT22;21818;51.078;12.108;2022-08-19T15:23:14;23.70;84.80
35700;DHT22;21818;51.078;12.108;2022-08-19T15:25:40;23.70;84.80
35700;DHT22;21818;51.078;12.108;2022-08-19T15:28:07;23.70;84.80